Time;durP1;ratioP1;P1;durP2;ratioP2;P2;SDS_P1;SDS_P2;PMS_P1;PMS_P2;Temp;Humidity;BMP_temperature;BMP_pressure;BME280_temperature;BME280_humidity;BME280_pressure;Samples;Min_cycle;Max_cycle;Signal;HPM_P1;HPM_P2
2021/11/23 00:00:54;;;;;;;;;;;13.80;70.50;;;;;;2078056;28;723;-56
2021/11/23 00:02:14;;;;;;;;;;;13.80;70.60;;;;;;2081529;28;716;-58
2021/11/23 00:03:33;;;;;;;;;;;13.80;70.60;;;;;;2081144;28;710;-59
2021/11/23 00:04:52;;;;;;;;;;;13.80;70.60;;;;;;2064788;28;968;-59
2021/11/23 00:06:13;;;;;;;;;;;13.80;70.60;;;;;;2081746;28;1907;-59
2021/11/23 00:07:32;;;;;;;;;;;13.80;71.60;;;;;;2084169;28;1667;-59
2021/11/23 00:08:51;;;;;;;;;;;13.80;70.80;;;;;;2081359;28;998;-58
2021/11/23 00:10:10;;;;;;;;;;;13.80;70.70;;;;;;2081347;28;969;-59
2021/11/23 00:11:29;;;;;;;;;;;13.80;71.00;;;;;;2081241;28;836;-57
2021/11/23 00:12:49;;;;;;;;;;;13.80;70.80;;;;;;2081281;28;691;-59
2021/11/23 00:14:08;;;;;;;;;;;13.80;70.80;;;;;;2075595;28;1894;-61
2021/11/23 00:15:27;;;;;;;;;;;13.80;71.00;;;;;;2081746;28;1363;-58
2021/11/23 00:16:47;;;;;;;;;;;13.80;71.10;;;;;;2100997;28;1404;-58
2021/11/23 00:18:07;;;;;;;;;;;13.80;71.00;;;;;;2081551;28;791;-57
2021/11/23 00:19:26;;;;;;;;;;;13.80;71.00;;;;;;2070370;28;740;-55
2021/11/23 00:20:46;;;;;;;;;;;13.80;71.00;;;;;;2070279;28;764;-58
2021/11/23 00:22:05;;;;;;;;;;;13.80;71.80;;;;;;2073451;28;836;-58
2021/11/23 00:23:24;;;;;;;;;;;13.70;71.70;;;;;;2078735;28;712;-58
2021/11/23 00:24:43;;;;;;;;;;;13.80;71.20;;;;;;2078824;28;730;-56
2021/11/23 00:26:03;;;;;;;;;;;13.80;71.30;;;;;;2081820;28;1678;-58
2021/11/23 00:27:23;;;;;;;;;;;13.80;71.20;;;;;;2077791;28;756;-57
2021/11/23 00:28:42;;;;;;;;;;;13.80;71.20;;;;;;2088595;28;712;-57
2021/11/23 00:30:03;;;;;;;;;;;13.80;71.30;;;;;;2074050;28;721;-58
2021/11/23 00:31:22;;;;;;;;;;;13.70;71.20;;;;;;2067180;28;737;-58
2021/11/23 00:32:41;;;;;;;;;;;13.70;71.10;;;;;;2082566;28;1855;-58
2021/11/23 00:34:01;;;;;;;;;;;13.70;71.10;;;;;;2089988;28;1898;-57
2021/11/23 00:35:20;;;;;;;;;;;13.70;71.20;;;;;;2095564;28;1260;-58
2021/11/23 00:36:39;;;;;;;;;;;13.70;71.20;;;;;;2083104;28;1496;-58
2021/11/23 00:37:59;;;;;;;;;;;13.70;71.30;;;;;;2086367;28;844;-58
2021/11/23 00:39:19;;;;;;;;;;;13.70;71.40;;;;;;2070559;28;745;-58
2021/11/23 00:40:38;;;;;;;;;;;13.70;71.20;;;;;;2072316;28;765;-55
2021/11/23 00:41:57;;;;;;;;;;;13.70;71.20;;;;;;2073751;28;745;-57
2021/11/23 00:43:16;;;;;;;;;;;13.70;71.30;;;;;;2078223;28;762;-58
2021/11/23 00:44:36;;;;;;;;;;;13.70;71.20;;;;;;2074843;28;1201;-55
2021/11/23 00:45:55;;;;;;;;;;;13.70;71.30;;;;;;2085330;28;1260;-56
2021/11/23 00:47:14;;;;;;;;;;;13.70;71.30;;;;;;2084381;28;1060;-58
2021/11/23 00:48:33;;;;;;;;;;;13.70;71.40;;;;;;2084514;28;866;-56
2021/11/23 00:49:52;;;;;;;;;;;13.70;71.50;;;;;;2091504;28;732;-57
2021/11/23 00:51:11;;;;;;;;;;;13.70;71.40;;;;;;2087481;28;768;-57
2021/11/23 00:52:31;;;;;;;;;;;13.60;71.50;;;;;;2090199;28;742;-56
2021/11/23 00:53:50;;;;;;;;;;;13.60;71.30;;;;;;2095042;28;1985;-57
2021/11/23 00:55:09;;;;;;;;;;;13.60;72.30;;;;;;2078874;28;761;-57
2021/11/23 00:56:28;;;;;;;;;;;13.60;71.50;;;;;;2083229;28;1671;-58
2021/11/23 00:57:47;;;;;;;;;;;13.60;71.60;;;;;;2086866;28;726;-56
2021/11/23 00:59:06;;;;;;;;;;;13.60;71.70;;;;;;2086497;28;765;-55
2021/11/23 01:00:26;;;;;;;;;;;13.60;71.70;;;;;;2076585;28;742;-58
2021/11/23 01:01:45;;;;;;;;;;;13.60;71.70;;;;;;2084855;28;752;-58
2021/11/23 01:03:04;;;;;;;;;;;13.60;72.10;;;;;;2078468;28;761;-58
2021/11/23 01:04:24;;;;;;;;;;;13.60;71.70;;;;;;2069390;28;1868;-57
2021/11/23 01:05:45;;;;;;;;;;;13.60;71.80;;;;;;2072838;28;1561;-56
2021/11/23 01:07:05;;;;;;;;;;;13.60;71.90;;;;;;2095221;28;798;-57
2021/11/23 01:08:24;;;;;;;;;;;13.60;71.90;;;;;;2088180;28;729;-57
2021/11/23 01:09:43;;;;;;;;;;;13.60;71.90;;;;;;2085008;28;759;-58
2021/11/23 01:11:03;;;;;;;;;;;13.60;72.80;;;;;;2085170;28;773;-56
2021/11/23 01:12:22;;;;;;;;;;;13.60;72.00;;;;;;2084859;28;737;-56
2021/11/23 01:13:41;;;;;;;;;;;13.50;72.50;;;;;;2086070;28;750;-55
2021/11/23 01:15:00;;;;;;;;;;;13.50;72.00;;;;;;2095110;28;1651;-56
2021/11/23 01:16:19;;;;;;;;;;;13.50;72.10;;;;;;2095140;28;1646;-58
2021/11/23 01:17:38;;;;;;;;;;;13.50;72.10;;;;;;2086318;28;1200;-54
2021/11/23 01:18:58;;;;;;;;;;;13.50;72.10;;;;;;2088643;28;711;-56
2021/11/23 01:20:17;;;;;;;;;;;13.50;72.00;;;;;;2086829;28;738;-57
2021/11/23 01:21:37;;;;;;;;;;;13.50;72.20;;;;;;2095707;28;779;-57
2021/11/23 01:22:57;;;;;;;;;;;13.50;72.30;;;;;;2090189;28;791;-56
2021/11/23 01:24:16;;;;;;;;;;;13.50;72.50;;;;;;2086798;28;861;-57
2021/11/23 01:25:35;;;;;;;;;;;13.50;72.40;;;;;;2086073;28;718;-56
2021/11/23 01:26:55;;;;;;;;;;;13.50;72.60;;;;;;2078696;28;1474;-58
2021/11/23 01:28:14;;;;;;;;;;;13.50;72.50;;;;;;2090769;28;1353;-57
2021/11/23 01:29:34;;;;;;;;;;;13.50;72.80;;;;;;2090694;28;726;-55
2021/11/23 01:30:53;;;;;;;;;;;13.50;72.60;;;;;;2073494;28;729;-57
2021/11/23 01:32:12;;;;;;;;;;;13.50;72.60;;;;;;2084084;28;724;-57
2021/11/23 01:33:31;;;;;;;;;;;13.50;72.80;;;;;;2073671;28;722;-58
2021/11/23 01:34:51;;;;;;;;;;;13.50;72.70;;;;;;2078616;28;794;-58
2021/11/23 01:36:10;;;;;;;;;;;13.50;72.90;;;;;;2086153;28;1908;-57
2021/11/23 01:37:29;;;;;;;;;;;13.50;72.90;;;;;;2090325;28;757;-59
2021/11/23 01:38:48;;;;;;;;;;;13.40;72.80;;;;;;2098386;28;834;-56
2021/11/23 01:40:08;;;;;;;;;;;13.40;72.70;;;;;;2093814;28;787;-55
2021/11/23 01:41:27;;;;;;;;;;;13.40;72.70;;;;;;2090742;28;762;-58
2021/11/23 01:42:48;;;;;;;;;;;13.40;73.00;;;;;;2090675;28;742;-58
2021/11/23 01:44:07;;;;;;;;;;;13.40;72.90;;;;;;2090754;28;1020;-57
2021/11/23 01:45:26;;;;;;;;;;;13.40;73.70;;;;;;2094301;28;1168;-58
2021/11/23 01:46:45;;;;;;;;;;;13.40;72.90;;;;;;2097473;28;1602;-57
2021/11/23 01:48:05;;;;;;;;;;;13.40;73.00;;;;;;2081720;28;741;-56
2021/11/23 01:49:24;;;;;;;;;;;13.40;73.00;;;;;;2087240;28;726;-57
2021/11/23 01:50:43;;;;;;;;;;;13.40;73.00;;;;;;2090649;28;725;-55
2021/11/23 01:52:02;;;;;;;;;;;13.40;73.00;;;;;;2090413;28;783;-55
2021/11/23 01:53:21;;;;;;;;;;;13.40;73.20;;;;;;2081892;28;737;-57
2021/11/23 01:54:42;;;;;;;;;;;13.40;73.10;;;;;;2078277;28;1983;-57
2021/11/23 01:56:01;;;;;;;;;;;13.40;73.30;;;;;;2077214;28;1534;-56
2021/11/23 01:57:20;;;;;;;;;;;13.40;73.30;;;;;;2087012;28;722;-55
2021/11/23 01:58:39;;;;;;;;;;;13.40;73.50;;;;;;2090649;28;715;-55
2021/11/23 01:59:58;;;;;;;;;;;13.30;73.30;;;;;;2090345;28;702;-56
2021/11/23 02:01:17;;;;;;;;;;;13.30;73.80;;;;;;2090655;28;702;-58
2021/11/23 02:02:37;;;;;;;;;;;13.30;73.30;;;;;;2098096;28;763;-57
2021/11/23 02:03:56;;;;;;;;;;;13.30;74.00;;;;;;2093423;28;837;-54
2021/11/23 02:05:15;;;;;;;;;;;13.30;73.30;;;;;;2090618;28;786;-56
2021/11/23 02:06:34;;;;;;;;;;;13.30;73.40;;;;;;2089874;28;1449;-55
2021/11/23 02:07:54;;;;;;;;;;;13.30;73.30;;;;;;2076533;28;729;-56
2021/11/23 02:09:13;;;;;;;;;;;13.30;73.30;;;;;;2083621;28;1787;-54
2021/11/23 02:10:32;;;;;;;;;;;13.30;73.40;;;;;;2098066;28;754;-58
2021/11/23 02:11:52;;;;;;;;;;;13.30;73.50;;;;;;2093248;28;766;-58
2021/11/23 02:13:13;;;;;;;;;;;13.30;73.50;;;;;;2098033;28;1053;-57
2021/11/23 02:14:32;;;;;;;;;;;13.30;73.50;;;;;;2092704;28;1968;-57
2021/11/23 02:15:51;;;;;;;;;;;13.30;73.50;;;;;;2081692;28;1602;-57
2021/11/23 02:17:10;;;;;;;;;;;13.30;73.50;;;;;;2092755;28;1151;-58
2021/11/23 02:18:30;;;;;;;;;;;13.20;73.50;;;;;;2090285;28;746;-57
2021/11/23 02:19:55;;;;;;;;;;;13.30;74.30;;;;;;2081428;28;765;-57
2021/11/23 02:21:14;;;;;;;;;;;13.20;73.50;;;;;;2079031;28;828;-56
2021/11/23 02:22:34;;;;;;;;;;;13.30;73.60;;;;;;2086597;28;764;-56
2021/11/23 02:23:53;;;;;;;;;;;13.20;73.50;;;;;;2081196;28;765;-58
2021/11/23 02:25:12;;;;;;;;;;;13.20;73.60;;;;;;2078087;28;1002;-56
2021/11/23 02:26:31;;;;;;;;;;;13.20;73.70;;;;;;2078745;28;1310;-57
2021/11/23 02:27:51;;;;;;;;;;;13.20;73.70;;;;;;2082126;28;777;-58
2021/11/23 02:29:10;;;;;;;;;;;13.20;74.50;;;;;;2073154;28;733;-58
2021/11/23 02:30:30;;;;;;;;;;;13.20;74.40;;;;;;2072890;28;718;-56
2021/11/23 02:31:49;;;;;;;;;;;13.20;73.80;;;;;;2086359;28;724;-58
2021/11/23 02:33:08;;;;;;;;;;;13.20;73.70;;;;;;2084825;28;745;-58
2021/11/23 02:34:27;;;;;;;;;;;13.20;74.00;;;;;;2081739;28;1983;-54
2021/11/23 02:35:46;;;;;;;;;;;13.20;73.80;;;;;;2072738;28;1332;-56
2021/11/23 02:37:05;;;;;;;;;;;13.20;74.00;;;;;;2077739;28;1402;-57
2021/11/23 02:38:25;;;;;;;;;;;13.20;74.20;;;;;;2086702;28;869;-57
2021/11/23 02:39:44;;;;;;;;;;;13.20;74.10;;;;;;2090176;28;710;-57
2021/11/23 02:41:04;;;;;;;;;;;13.20;74.00;;;;;;2081318;28;780;-57
2021/11/23 02:42:23;;;;;;;;;;;13.20;74.10;;;;;;2086779;28;733;-54
2021/11/23 02:43:42;;;;;;;;;;;13.10;74.10;;;;;;2081992;28;2649;-55
2021/11/23 02:45:02;;;;;;;;;;;13.20;74.00;;;;;;2077086;28;1268;-56
2021/11/23 02:46:21;;;;;;;;;;;13.20;74.00;;;;;;2083424;28;2440;-56
2021/11/23 02:47:40;;;;;;;;;;;13.20;74.10;;;;;;2091502;28;990;-57
2021/11/23 02:48:59;;;;;;;;;;;13.20;74.20;;;;;;2097055;28;1052;-56
2021/11/23 02:50:19;;;;;;;;;;;13.20;74.20;;;;;;2093043;28;1599;-56
2021/11/23 02:51:39;;;;;;;;;;;13.20;74.10;;;;;;2083553;28;1172;-57
2021/11/23 02:52:58;;;;;;;;;;;13.30;74.00;;;;;;2086356;28;756;-57
2021/11/23 02:54:18;;;;;;;;;;;13.40;73.70;;;;;;2081031;28;1910;-57
2021/11/23 02:55:37;;;;;;;;;;;13.40;73.10;;;;;;2085894;28;720;-58
2021/11/23 02:56:56;;;;;;;;;;;13.50;72.80;;;;;;2081733;28;1447;-55
2021/11/23 02:58:15;;;;;;;;;;;13.60;72.40;;;;;;2081686;28;775;-55
2021/11/23 02:59:35;;;;;;;;;;;13.70;72.00;;;;;;2081924;28;737;-54
2021/11/23 03:00:54;;;;;;;;;;;13.70;71.40;;;;;;2080777;28;784;-57
2021/11/23 03:02:13;;;;;;;;;;;13.80;71.70;;;;;;2081613;28;706;-56
2021/11/23 03:03:32;;;;;;;;;;;13.90;71.30;;;;;;2079825;28;1322;-57
2021/11/23 03:04:52;;;;;;;;;;;13.90;70.20;;;;;;2078488;28;1417;-58
2021/11/23 03:06:13;;;;;;;;;;;14.00;70.70;;;;;;2082408;28;1522;-58
2021/11/23 03:07:33;;;;;;;;;;;14.00;69.80;;;;;;2081912;28;1239;-57
2021/11/23 03:08:52;;;;;;;;;;;14.00;69.60;;;;;;2071374;28;1680;-57
2021/11/23 03:10:11;;;;;;;;;;;14.00;69.60;;;;;;2082152;28;1240;-57
2021/11/23 03:11:31;;;;;;;;;;;14.00;69.50;;;;;;2085656;28;1347;-57
2021/11/23 03:12:51;;;;;;;;;;;14.00;69.50;;;;;;2091454;28;1234;-58
2021/11/23 03:14:10;;;;;;;;;;;14.00;69.50;;;;;;2076804;28;1963;-55
2021/11/23 03:15:29;;;;;;;;;;;13.90;69.40;;;;;;2083853;28;1463;-58
2021/11/23 03:16:49;;;;;;;;;;;13.90;69.50;;;;;;2080530;28;1847;-58
2021/11/23 03:18:11;;;;;;;;;;;13.90;69.60;;;;;;2074485;28;1633;-58
2021/11/23 03:19:30;;;;;;;;;;;13.90;69.70;;;;;;2087087;28;1289;-59
2021/11/23 03:20:51;;;;;;;;;;;13.90;69.80;;;;;;2082917;28;1193;-58
2021/11/23 03:22:10;;;;;;;;;;;13.90;69.90;;;;;;2086745;28;1469;-56
2021/11/23 03:23:29;;;;;;;;;;;13.90;70.00;;;;;;2087982;28;1550;-57
2021/11/23 03:24:48;;;;;;;;;;;13.80;70.00;;;;;;2082808;28;1391;-58
2021/11/23 03:26:08;;;;;;;;;;;13.80;70.10;;;;;;2086325;28;1537;-58
2021/11/23 03:27:27;;;;;;;;;;;13.80;70.20;;;;;;2077005;28;1202;-58
2021/11/23 03:28:46;;;;;;;;;;;13.80;70.30;;;;;;2086975;28;1283;-58
2021/11/23 03:30:05;;;;;;;;;;;13.80;70.30;;;;;;2091502;28;1301;-57
2021/11/23 03:31:25;;;;;;;;;;;13.80;70.40;;;;;;2089007;28;1422;-58
2021/11/23 03:32:45;;;;;;;;;;;13.80;70.40;;;;;;2082626;28;1364;-56
2021/11/23 03:34:05;;;;;;;;;;;13.80;70.50;;;;;;2084452;28;1914;-58
2021/11/23 03:35:25;;;;;;;;;;;13.80;70.60;;;;;;2088695;28;1195;-58
2021/11/23 03:36:44;;;;;;;;;;;13.80;70.60;;;;;;2078745;28;1492;-57
2021/11/23 03:38:04;;;;;;;;;;;13.80;70.70;;;;;;2081580;28;1653;-57
2021/11/23 03:39:23;;;;;;;;;;;13.80;70.80;;;;;;2077826;28;1317;-56
2021/11/23 03:40:43;;;;;;;;;;;13.70;70.80;;;;;;2074329;28;1358;-57
2021/11/23 03:42:02;;;;;;;;;;;13.70;71.00;;;;;;2080686;28;1285;-57
2021/11/23 03:43:21;;;;;;;;;;;13.70;71.00;;;;;;2089758;28;1149;-58
2021/11/23 03:44:40;;;;;;;;;;;13.70;71.80;;;;;;2080975;28;1167;-58
2021/11/23 03:46:00;;;;;;;;;;;13.70;71.10;;;;;;2083585;28;1225;-58
2021/11/23 03:47:21;;;;;;;;;;;13.70;71.30;;;;;;2084766;28;1260;-58
2021/11/23 03:48:40;;;;;;;;;;;13.70;71.40;;;;;;2077848;28;1378;-57
2021/11/23 03:50:00;;;;;;;;;;;13.60;71.30;;;;;;2078513;28;1244;-58
2021/11/23 03:51:20;;;;;;;;;;;13.60;71.50;;;;;;2083903;28;1363;-55
2021/11/23 03:52:39;;;;;;;;;;;13.60;71.50;;;;;;2097519;28;1320;-58
2021/11/23 03:53:58;;;;;;;;;;;13.60;71.70;;;;;;2090914;28;1906;-56
2021/11/23 03:55:17;;;;;;;;;;;13.60;71.80;;;;;;2087595;28;1227;-56
2021/11/23 03:56:36;;;;;;;;;;;13.60;71.80;;;;;;2087896;28;1436;-57
2021/11/23 03:57:57;;;;;;;;;;;13.60;72.00;;;;;;2080659;28;1348;-58
2021/11/23 03:59:16;;;;;;;;;;;13.60;72.20;;;;;;2077820;28;1076;-57
2021/11/23 04:00:35;;;;;;;;;;;13.60;72.10;;;;;;2077708;28;1194;-58
2021/11/23 04:01:54;;;;;;;;;;;13.60;72.20;;;;;;2085967;28;1449;-58
2021/11/23 04:03:13;;;;;;;;;;;13.60;72.30;;;;;;2090219;28;1302;-59
2021/11/23 04:04:33;;;;;;;;;;;13.50;72.20;;;;;;2081147;28;1185;-56
2021/11/23 04:05:52;;;;;;;;;;;13.50;72.70;;;;;;2075770;28;1378;-58
2021/11/23 04:07:11;;;;;;;;;;;13.50;72.80;;;;;;2080334;28;1506;-58
2021/11/23 04:08:31;;;;;;;;;;;13.50;73.20;;;;;;2084916;28;1238;-59
2021/11/23 04:09:50;;;;;;;;;;;13.50;73.50;;;;;;2081319;28;1149;-56
2021/11/23 04:11:10;;;;;;;;;;;13.50;73.80;;;;;;2086616;28;1463;-59
2021/11/23 04:12:30;;;;;;;;;;;13.50;74.60;;;;;;2081527;28;1325;-58
2021/11/23 04:13:49;;;;;;;;;;;13.50;75.60;;;;;;2080027;28;1368;-58
2021/11/23 04:15:09;;;;;;;;;;;13.50;76.20;;;;;;2077228;28;1316;-59
2021/11/23 04:16:28;;;;;;;;;;;13.60;76.70;;;;;;2083538;28;1400;-54
2021/11/23 04:17:48;;;;;;;;;;;13.60;77.20;;;;;;2081146;28;1267;-57
2021/11/23 04:19:07;;;;;;;;;;;13.70;78.10;;;;;;2086503;28;1173;-59
2021/11/23 04:20:27;;;;;;;;;;;13.70;78.70;;;;;;2080500;28;1397;-56
2021/11/23 04:21:46;;;;;;;;;;;13.60;78.80;;;;;;2080672;28;1426;-58
2021/11/23 04:23:06;;;;;;;;;;;13.60;78.20;;;;;;2080916;28;1398;-58
2021/11/23 04:24:25;;;;;;;;;;;13.60;78.30;;;;;;2083884;28;1285;-58
2021/11/23 04:25:44;;;;;;;;;;;13.60;78.50;;;;;;2086084;28;1247;-59
2021/11/23 04:27:04;;;;;;;;;;;13.50;78.60;;;;;;2074842;28;1275;-58
2021/11/23 04:28:23;;;;;;;;;;;13.50;78.90;;;;;;2079309;28;1341;-59
2021/11/23 04:29:42;;;;;;;;;;;13.50;78.90;;;;;;2079563;28;1292;-59
2021/11/23 04:31:01;;;;;;;;;;;13.50;79.50;;;;;;2070860;28;1659;-58
2021/11/23 04:32:20;;;;;;;;;;;13.50;79.50;;;;;;2084629;28;1404;-59
2021/11/23 04:33:40;;;;;;;;;;;13.50;80.70;;;;;;2088563;28;1192;-58
2021/11/23 04:34:59;;;;;;;;;;;13.50;80.10;;;;;;2087253;28;1176;-57
2021/11/23 04:36:18;;;;;;;;;;;13.50;80.30;;;;;;2088645;28;1537;-58
2021/11/23 04:37:38;;;;;;;;;;;13.40;80.50;;;;;;2072592;28;1119;-59
2021/11/23 04:38:57;;;;;;;;;;;13.40;80.40;;;;;;2074042;28;1454;-59
2021/11/23 04:40:16;;;;;;;;;;;13.40;80.70;;;;;;2084100;28;1696;-58
2021/11/23 04:41:35;;;;;;;;;;;13.40;80.50;;;;;;2079303;28;1185;-60
2021/11/23 04:42:55;;;;;;;;;;;13.40;81.00;;;;;;2076609;28;1223;-59
2021/11/23 04:44:14;;;;;;;;;;;13.40;81.20;;;;;;2085646;28;1467;-59
2021/11/23 04:45:33;;;;;;;;;;;13.40;81.30;;;;;;2078211;28;1241;-59
2021/11/23 04:46:53;;;;;;;;;;;13.40;81.40;;;;;;2072958;28;1425;-59
2021/11/23 04:48:12;;;;;;;;;;;13.40;81.20;;;;;;2076716;28;1589;-59
2021/11/23 04:49:31;;;;;;;;;;;13.40;81.30;;;;;;2075366;28;1268;-59
2021/11/23 04:50:51;;;;;;;;;;;13.40;81.50;;;;;;2077541;28;1438;-58
2021/11/23 04:52:10;;;;;;;;;;;13.30;81.30;;;;;;2076241;28;1135;-59
2021/11/23 04:53:29;;;;;;;;;;;13.30;81.50;;;;;;2079509;28;1490;-58
2021/11/23 04:54:49;;;;;;;;;;;13.30;81.30;;;;;;2088644;28;1914;-59
2021/11/23 04:56:10;;;;;;;;;;;13.30;81.60;;;;;;2084874;28;1394;-59
2021/11/23 04:57:29;;;;;;;;;;;13.30;81.60;;;;;;2084612;28;1380;-58
2021/11/23 04:58:48;;;;;;;;;;;13.30;81.60;;;;;;2088257;28;1199;-58
2021/11/23 05:00:08;;;;;;;;;;;13.30;81.60;;;;;;2092535;28;1271;-59
2021/11/23 05:01:27;;;;;;;;;;;13.30;81.60;;;;;;2083488;28;1408;-59
2021/11/23 05:02:47;;;;;;;;;;;13.30;81.30;;;;;;2077932;28;1217;-59
2021/11/23 05:04:06;;;;;;;;;;;13.30;81.60;;;;;;2085795;28;1270;-59
2021/11/23 05:05:26;;;;;;;;;;;13.30;82.30;;;;;;2089110;28;1313;-58
2021/11/23 05:06:45;;;;;;;;;;;13.30;82.40;;;;;;2085343;28;1518;-57
2021/11/23 05:08:05;;;;;;;;;;;13.30;81.50;;;;;;2075427;28;1287;-59
2021/11/23 05:09:24;;;;;;;;;;;13.30;81.40;;;;;;2081192;28;1335;-59
2021/11/23 05:10:43;;;;;;;;;;;13.30;81.70;;;;;;2085938;28;1299;-59
2021/11/23 05:12:02;;;;;;;;;;;13.20;81.40;;;;;;2089734;28;1475;-59
2021/11/23 05:13:22;;;;;;;;;;;13.20;81.50;;;;;;2089861;28;1225;-59
2021/11/23 05:14:41;;;;;;;;;;;13.20;81.50;;;;;;2089388;28;1898;-59
2021/11/23 05:16:00;;;;;;;;;;;13.30;81.70;;;;;;2089937;28;1258;-59
2021/11/23 05:17:19;;;;;;;;;;;13.20;81.40;;;;;;2076711;28;1203;-60
2021/11/23 05:18:38;;;;;;;;;;;13.20;81.80;;;;;;2083561;28;1436;-58
2021/11/23 05:19:58;;;;;;;;;;;13.20;82.30;;;;;;2083052;28;1332;-58
2021/11/23 05:21:18;;;;;;;;;;;13.30;83.50;;;;;;2084636;28;1560;-58
2021/11/23 05:22:37;;;;;;;;;;;13.30;83.80;;;;;;2080429;28;1168;-58
2021/11/23 05:23:57;;;;;;;;;;;13.30;83.40;;;;;;2075218;28;1396;-59
2021/11/23 05:25:16;;;;;;;;;;;13.30;83.20;;;;;;2084771;28;1312;-57
2021/11/23 05:26:35;;;;;;;;;;;13.30;83.50;;;;;;2089091;28;1510;-59
2021/11/23 05:27:55;;;;;;;;;;;13.30;83.50;;;;;;2085223;28;1484;-54
2021/11/23 05:29:14;;;;;;;;;;;13.20;82.80;;;;;;2079716;28;1599;-57
2021/11/23 05:30:34;;;;;;;;;;;13.20;82.20;;;;;;2085734;28;1426;-55
2021/11/23 05:31:53;;;;;;;;;;;13.20;82.10;;;;;;2090326;28;1402;-57
2021/11/23 05:33:12;;;;;;;;;;;13.20;82.20;;;;;;2090514;28;1213;-57
2021/11/23 05:34:31;;;;;;;;;;;13.20;82.30;;;;;;2081942;28;1899;-57
2021/11/23 05:35:51;;;;;;;;;;;13.20;82.40;;;;;;2072424;28;1184;-55
2021/11/23 05:37:10;;;;;;;;;;;13.10;82.10;;;;;;2085185;28;1148;-57
2021/11/23 05:38:29;;;;;;;;;;;13.10;82.40;;;;;;2081580;28;1448;-57
2021/11/23 05:39:49;;;;;;;;;;;13.10;82.50;;;;;;2083047;28;1184;-56
2021/11/23 05:41:08;;;;;;;;;;;13.10;82.40;;;;;;2088512;28;1168;-57
2021/11/23 05:42:27;;;;;;;;;;;13.10;82.40;;;;;;2093296;28;1323;-58
2021/11/23 05:43:46;;;;;;;;;;;13.10;82.30;;;;;;2088823;28;1580;-57
2021/11/23 05:45:08;;;;;;;;;;;13.20;82.40;;;;;;2072878;28;1584;-57
2021/11/23 05:46:28;;;;;;;;;;;13.20;82.30;;;;;;2088765;28;1499;-57
2021/11/23 05:47:47;;;;;;;;;;;13.20;82.10;;;;;;2091542;28;1409;-56
2021/11/23 05:49:06;;;;;;;;;;;13.30;81.90;;;;;;2083563;28;1537;-57
2021/11/23 05:50:25;;;;;;;;;;;13.40;81.70;;;;;;2086776;28;1435;-58
2021/11/23 05:51:46;;;;;;;;;;;13.40;81.10;;;;;;2092290;28;1186;-56
2021/11/23 05:53:05;;;;;;;;;;;13.50;81.10;;;;;;2092029;28;1177;-57
2021/11/23 05:54:24;;;;;;;;;;;13.60;79.80;;;;;;2094740;28;1910;-57
2021/11/23 05:55:43;;;;;;;;;;;13.70;79.20;;;;;;2091441;28;1086;-58
2021/11/23 05:57:03;;;;;;;;;;;13.70;78.50;;;;;;2089363;28;1315;-58
2021/11/23 05:58:22;;;;;;;;;;;13.80;78.00;;;;;;2089508;28;1270;-57
2021/11/23 05:59:41;;;;;;;;;;;13.90;77.50;;;;;;2092124;28;1196;-57
2021/11/23 06:01:01;;;;;;;;;;;14.00;76.90;;;;;;2083851;28;1259;-58
2021/11/23 06:02:20;;;;;;;;;;;14.00;76.30;;;;;;2084654;28;1205;-57
2021/11/23 06:03:39;;;;;;;;;;;14.10;75.90;;;;;;2078943;28;1182;-59
2021/11/23 06:05:00;;;;;;;;;;;14.20;76.00;;;;;;2085312;28;1139;-57
2021/11/23 06:06:19;;;;;;;;;;;14.20;76.20;;;;;;2079977;28;1498;-58
2021/11/23 06:07:38;;;;;;;;;;;14.30;77.10;;;;;;2089533;28;1532;-56
2021/11/23 06:08:58;;;;;;;;;;;14.30;77.10;;;;;;2092912;28;1161;-56
2021/11/23 06:10:17;;;;;;;;;;;14.40;77.50;;;;;;2092636;28;1424;-57
2021/11/23 06:11:36;;;;;;;;;;;14.50;76.50;;;;;;2082458;28;1182;-60
2021/11/23 06:12:55;;;;;;;;;;;14.60;76.40;;;;;;2080666;28;1326;-59
2021/11/23 06:14:14;;;;;;;;;;;14.60;76.20;;;;;;2087003;28;1983;-59
2021/11/23 06:15:34;;;;;;;;;;;14.70;76.10;;;;;;2092638;28;1166;-59
2021/11/23 06:16:53;;;;;;;;;;;14.70;75.70;;;;;;2089807;28;1381;-58
2021/11/23 06:18:14;;;;;;;;;;;14.80;75.60;;;;;;2092516;28;1171;-58
2021/11/23 06:19:33;;;;;;;;;;;14.80;75.30;;;;;;2083986;28;1356;-59
2021/11/23 06:20:56;;;;;;;;;;;14.90;75.20;;;;;;2083883;28;1037;-59
2021/11/23 06:22:15;;;;;;;;;;;15.00;75.10;;;;;;2089432;28;1177;-58
2021/11/23 06:23:34;;;;;;;;;;;15.00;74.60;;;;;;2083723;28;1160;-57
2021/11/23 06:24:53;;;;;;;;;;;15.10;74.50;;;;;;2089009;28;1270;-59
2021/11/23 06:26:12;;;;;;;;;;;15.10;74.20;;;;;;2083462;28;1369;-57
2021/11/23 06:27:32;;;;;;;;;;;15.20;74.00;;;;;;2091239;28;1170;-59
2021/11/23 06:28:51;;;;;;;;;;;15.30;73.70;;;;;;2092301;28;1101;-58
2021/11/23 06:30:10;;;;;;;;;;;15.40;73.50;;;;;;2082890;28;1523;-57
2021/11/23 06:31:30;;;;;;;;;;;15.50;73.10;;;;;;2078469;28;1062;-59
2021/11/23 06:32:49;;;;;;;;;;;15.50;72.90;;;;;;2085288;28;1033;-59
2021/11/23 06:34:09;;;;;;;;;;;15.60;72.50;;;;;;2090806;28;1918;-57
2021/11/23 06:35:30;;;;;;;;;;;15.60;72.10;;;;;;2081590;28;1240;-58
2021/11/23 06:36:49;;;;;;;;;;;15.70;71.70;;;;;;2086165;28;1382;-58
2021/11/23 06:38:08;;;;;;;;;;;15.80;71.80;;;;;;2088512;28;1372;-59
2021/11/23 06:39:27;;;;;;;;;;;15.90;70.60;;;;;;2102834;28;1375;-57
2021/11/23 06:40:47;;;;;;;;;;;15.90;70.00;;;;;;2094561;28;1230;-59
2021/11/23 06:42:06;;;;;;;;;;;16.00;70.00;;;;;;2091730;28;1355;-59
2021/11/23 06:43:26;;;;;;;;;;;16.10;69.60;;;;;;2089272;28;1274;-59
2021/11/23 06:44:45;;;;;;;;;;;16.10;69.30;;;;;;2088255;28;1163;-57
2021/11/23 06:46:04;;;;;;;;;;;16.10;68.60;;;;;;2082769;28;1401;-58
2021/11/23 06:47:23;;;;;;;;;;;16.10;68.60;;;;;;2081123;28;1404;-59
2021/11/23 06:48:43;;;;;;;;;;;16.10;68.50;;;;;;2081363;28;1225;-60
2021/11/23 06:50:02;;;;;;;;;;;16.10;68.20;;;;;;2084603;28;1219;-60
2021/11/23 06:51:21;;;;;;;;;;;16.20;68.10;;;;;;2090530;28;1290;-58
2021/11/23 06:52:40;;;;;;;;;;;16.20;67.80;;;;;;2089615;28;1349;-59
2021/11/23 06:53:59;;;;;;;;;;;16.20;67.60;;;;;;2089469;28;1468;-58
2021/11/23 06:55:18;;;;;;;;;;;16.20;68.10;;;;;;2082142;28;1434;-59
2021/11/23 06:56:38;;;;;;;;;;;16.20;68.20;;;;;;2088735;28;1365;-58
2021/11/23 06:57:57;;;;;;;;;;;16.20;67.30;;;;;;2089976;28;1535;-59
2021/11/23 06:59:16;;;;;;;;;;;16.30;67.50;;;;;;2091392;28;1266;-56
2021/11/23 07:00:35;;;;;;;;;;;16.20;67.40;;;;;;2082100;28;1458;-60
2021/11/23 07:01:55;;;;;;;;;;;16.20;67.50;;;;;;2078699;28;1177;-58
2021/11/23 07:03:14;;;;;;;;;;;16.30;67.60;;;;;;2071662;28;1402;-58
2021/11/23 07:04:33;;;;;;;;;;;16.30;67.60;;;;;;2084169;28;1081;-59
2021/11/23 07:05:53;;;;;;;;;;;16.30;67.60;;;;;;2080034;28;1536;-57
2021/11/23 07:07:12;;;;;;;;;;;16.30;67.60;;;;;;2087312;28;1252;-59
2021/11/23 07:08:32;;;;;;;;;;;16.30;67.60;;;;;;2090925;28;1368;-58
2021/11/23 07:09:51;;;;;;;;;;;16.30;67.70;;;;;;2073409;28;1265;-58
2021/11/23 07:11:11;;;;;;;;;;;16.30;67.70;;;;;;2082276;28;1126;-59
2021/11/23 07:12:30;;;;;;;;;;;16.20;67.70;;;;;;2082369;28;1071;-58
2021/11/23 07:13:49;;;;;;;;;;;16.20;67.80;;;;;;2087765;28;1391;-60
2021/11/23 07:15:09;;;;;;;;;;;16.20;68.00;;;;;;2082505;28;1362;-59
2021/11/23 07:16:28;;;;;;;;;;;16.20;68.10;;;;;;2080742;28;1432;-59
2021/11/23 07:17:47;;;;;;;;;;;16.10;68.20;;;;;;2088053;28;1182;-60
2021/11/23 07:19:07;;;;;;;;;;;16.10;68.40;;;;;;2091374;28;1228;-59
2021/11/23 07:20:26;;;;;;;;;;;16.00;68.60;;;;;;2080554;28;1430;-59
2021/11/23 07:21:45;;;;;;;;;;;16.00;68.90;;;;;;2079874;28;1258;-59
2021/11/23 07:23:04;;;;;;;;;;;16.00;69.10;;;;;;2084535;28;1225;-58
2021/11/23 07:24:23;;;;;;;;;;;15.90;69.30;;;;;;2094270;28;1143;-58
2021/11/23 07:25:42;;;;;;;;;;;15.90;69.50;;;;;;2080783;28;1604;-58
2021/11/23 07:27:02;;;;;;;;;;;15.80;69.70;;;;;;2085893;28;1534;-59
2021/11/23 07:28:21;;;;;;;;;;;15.70;69.10;;;;;;2073320;28;1321;-59
2021/11/23 07:29:40;;;;;;;;;;;15.70;69.80;;;;;;2080756;28;1182;-58
2021/11/23 07:30:59;;;;;;;;;;;15.70;70.00;;;;;;2088583;28;1139;-59
2021/11/23 07:32:18;;;;;;;;;;;15.70;70.50;;;;;;2091458;28;1317;-58
2021/11/23 07:33:38;;;;;;;;;;;15.70;69.60;;;;;;2082464;28;1192;-58
2021/11/23 07:34:57;;;;;;;;;;;15.70;69.20;;;;;;2088554;28;1934;-59
2021/11/23 07:36:19;;;;;;;;;;;15.70;69.30;;;;;;2082888;28;1443;-60
2021/11/23 07:37:41;;;;;;;;;;;15.80;69.30;;;;;;2089252;28;1283;-60
2021/11/23 07:39:01;;;;;;;;;;;15.80;69.20;;;;;;2082422;28;1743;-59
2021/11/23 07:40:20;;;;;;;;;;;15.90;69.10;;;;;;2091923;28;1120;-58
2021/11/23 07:41:39;;;;;;;;;;;15.90;69.00;;;;;;2073852;28;1272;-59
2021/11/23 07:42:58;;;;;;;;;;;16.00;69.60;;;;;;2085865;28;1342;-55
2021/11/23 07:44:17;;;;;;;;;;;15.90;68.50;;;;;;2093464;28;1025;-58
2021/11/23 07:45:38;;;;;;;;;;;16.00;68.60;;;;;;2084483;28;1457;-58
2021/11/23 07:46:57;;;;;;;;;;;16.00;68.50;;;;;;2079617;28;1427;-59
2021/11/23 07:48:17;;;;;;;;;;;16.00;68.50;;;;;;2081828;28;1293;-56
2021/11/23 07:49:36;;;;;;;;;;;16.00;68.50;;;;;;2091000;28;1411;-59
2021/11/23 07:50:55;;;;;;;;;;;16.00;68.40;;;;;;2092422;28;1414;-59